sensor_id;sensor_type;location;lat;lon;timestamp;P1;durP1;ratioP1;P2;durP2;ratioP2
74660;SDS011;63191;39.566;2.654;2023-05-10T00:01:20;6.40;;;1.40;;
74660;SDS011;63191;39.566;2.654;2023-05-10T00:03:47;5.30;;;1.20;;
74660;SDS011;63191;39.566;2.654;2023-05-10T00:06:13;5.30;;;0.90;;
74660;SDS011;63191;39.566;2.654;2023-05-10T00:08:38;6.40;;;1.00;;
74660;SDS011;63191;39.566;2.654;2023-05-10T00:11:04;6.80;;;1.20;;
74660;SDS011;63191;39.566;2.654;2023-05-10T00:13:31;4.70;;;0.80;;
74660;SDS011;63191;39.566;2.654;2023-05-10T00:15:57;8.30;;;1.00;;
74660;SDS011;63191;39.566;2.654;2023-05-10T00:18:23;6.60;;;1.30;;
74660;SDS011;63191;39.566;2.654;2023-05-10T00:20:48;4.60;;;0.90;;
74660;SDS011;63191;39.566;2.654;2023-05-10T00:23:14;4.60;;;0.70;;
74660;SDS011;63191;39.566;2.654;2023-05-10T00:25:40;6.90;;;0.90;;
74660;SDS011;63191;39.566;2.654;2023-05-10T00:28:06;5.70;;;0.90;;
74660;SDS011;63191;39.566;2.654;2023-05-10T00:30:31;4.60;;;0.80;;
74660;SDS011;63191;39.566;2.654;2023-05-10T00:32:57;6.00;;;0.80;;
74660;SDS011;63191;39.566;2.654;2023-05-10T00:35:23;6.80;;;0.70;;
74660;SDS011;63191;39.566;2.654;2023-05-10T00:37:50;4.60;;;0.80;;
74660;SDS011;63191;39.566;2.654;2023-05-10T00:40:15;4.90;;;0.80;;
74660;SDS011;63191;39.566;2.654;2023-05-10T00:42:41;6.60;;;0.80;;
74660;SDS011;63191;39.566;2.654;2023-05-10T00:45:08;3.30;;;0.60;;
74660;SDS011;63191;39.566;2.654;2023-05-10T00:47:34;4.20;;;0.60;;
74660;SDS011;63191;39.566;2.654;2023-05-10T00:50:00;4.00;;;0.70;;
74660;SDS011;63191;39.566;2.654;2023-05-10T00:52:27;4.20;;;0.70;;
74660;SDS011;63191;39.566;2.654;2023-05-10T00:54:54;4.50;;;0.80;;
74660;SDS011;63191;39.566;2.654;2023-05-10T00:57:23;2.90;;;0.60;;
74660;SDS011;63191;39.566;2.654;2023-05-10T00:59:50;6.00;;;0.80;;
74660;SDS011;63191;39.566;2.654;2023-05-10T01:02:16;6.50;;;0.90;;
74660;SDS011;63191;39.566;2.654;2023-05-10T01:04:42;3.40;;;0.60;;
74660;SDS011;63191;39.566;2.654;2023-05-10T01:07:08;7.30;;;0.80;;
74660;SDS011;63191;39.566;2.654;2023-05-10T01:09:34;4.30;;;0.50;;
74660;SDS011;63191;39.566;2.654;2023-05-10T01:12:01;4.20;;;0.70;;
74660;SDS011;63191;39.566;2.654;2023-05-10T01:14:28;4.00;;;0.60;;
74660;SDS011;63191;39.566;2.654;2023-05-10T01:16:54;4.50;;;0.50;;
74660;SDS011;63191;39.566;2.654;2023-05-10T01:19:25;5.80;;;0.60;;
74660;SDS011;63191;39.566;2.654;2023-05-10T01:38:25;4.10;;;0.60;;
74660;SDS011;63191;39.566;2.654;2023-05-10T01:41:57;2.90;;;0.40;;
74660;SDS011;63191;39.566;2.654;2023-05-10T01:43:55;2.70;;;0.50;;
74660;SDS011;63191;39.566;2.654;2023-05-10T01:46:33;2.60;;;0.50;;
74660;SDS011;63191;39.566;2.654;2023-05-10T01:49:03;3.80;;;0.50;;
74660;SDS011;63191;39.566;2.654;2023-05-10T01:52:09;5.80;;;0.50;;
74660;SDS011;63191;39.566;2.654;2023-05-10T01:54:39;5.50;;;0.70;;
74660;SDS011;63191;39.566;2.654;2023-05-10T01:57:08;4.60;;;0.50;;
74660;SDS011;63191;39.566;2.654;2023-05-10T01:59:38;3.20;;;0.60;;
74660;SDS011;63191;39.566;2.654;2023-05-10T02:02:06;3.10;;;0.60;;
74660;SDS011;63191;39.566;2.654;2023-05-10T02:04:35;5.40;;;0.60;;
74660;SDS011;63191;39.566;2.654;2023-05-10T02:07:03;4.70;;;0.60;;
74660;SDS011;63191;39.566;2.654;2023-05-10T02:09:32;4.40;;;0.50;;
74660;SDS011;63191;39.566;2.654;2023-05-10T02:12:00;5.20;;;0.60;;
74660;SDS011;63191;39.566;2.654;2023-05-10T02:14:29;3.40;;;0.50;;
74660;SDS011;63191;39.566;2.654;2023-05-10T02:16:59;3.30;;;0.40;;
74660;SDS011;63191;39.566;2.654;2023-05-10T02:19:27;4.70;;;0.60;;
74660;SDS011;63191;39.566;2.654;2023-05-10T02:21:55;6.80;;;0.70;;
74660;SDS011;63191;39.566;2.654;2023-05-10T02:24:22;3.60;;;0.40;;
74660;SDS011;63191;39.566;2.654;2023-05-10T02:26:51;5.60;;;0.50;;
74660;SDS011;63191;39.566;2.654;2023-05-10T02:29:20;2.50;;;0.40;;
74660;SDS011;63191;39.566;2.654;2023-05-10T02:31:49;5.30;;;0.40;;
74660;SDS011;63191;39.566;2.654;2023-05-10T02:34:16;4.80;;;0.50;;
74660;SDS011;63191;39.566;2.654;2023-05-10T02:36:43;4.00;;;0.30;;
74660;SDS011;63191;39.566;2.654;2023-05-10T02:39:11;3.60;;;0.50;;
74660;SDS011;63191;39.566;2.654;2023-05-10T02:41:40;3.40;;;0.40;;
74660;SDS011;63191;39.566;2.654;2023-05-10T02:44:07;3.90;;;0.40;;
74660;SDS011;63191;39.566;2.654;2023-05-10T02:46:35;2.30;;;0.30;;
74660;SDS011;63191;39.566;2.654;2023-05-10T02:49:02;5.20;;;0.40;;
74660;SDS011;63191;39.566;2.654;2023-05-10T02:51:31;5.00;;;0.50;;
74660;SDS011;63191;39.566;2.654;2023-05-10T02:54:06;2.50;;;0.30;;
74660;SDS011;63191;39.566;2.654;2023-05-10T02:56:43;5.80;;;0.50;;
74660;SDS011;63191;39.566;2.654;2023-05-10T02:59:13;3.50;;;0.30;;
74660;SDS011;63191;39.566;2.654;2023-05-10T03:01:39;2.60;;;0.20;;
74660;SDS011;63191;39.566;2.654;2023-05-10T03:04:04;4.70;;;1.20;;
74660;SDS011;63191;39.566;2.654;2023-05-10T03:06:31;4.00;;;0.40;;
74660;SDS011;63191;39.566;2.654;2023-05-10T03:08:57;5.30;;;0.90;;
74660;SDS011;63191;39.566;2.654;2023-05-10T03:11:33;6.00;;;1.00;;
74660;SDS011;63191;39.566;2.654;2023-05-10T03:14:47;4.10;;;0.80;;
74660;SDS011;63191;39.566;2.654;2023-05-10T03:17:31;3.00;;;0.70;;
74660;SDS011;63191;39.566;2.654;2023-05-10T03:20:05;4.40;;;0.40;;
74660;SDS011;63191;39.566;2.654;2023-05-10T03:22:38;6.10;;;1.40;;
74660;SDS011;63191;39.566;2.654;2023-05-10T03:25:12;6.30;;;0.80;;
74660;SDS011;63191;39.566;2.654;2023-05-10T03:27:42;5.80;;;1.20;;
74660;SDS011;63191;39.566;2.654;2023-05-10T03:30:11;3.80;;;0.70;;
74660;SDS011;63191;39.566;2.654;2023-05-10T03:32:38;4.90;;;0.80;;
74660;SDS011;63191;39.566;2.654;2023-05-10T03:35:11;4.80;;;1.10;;
74660;SDS011;63191;39.566;2.654;2023-05-10T03:37:40;4.70;;;0.70;;
74660;SDS011;63191;39.566;2.654;2023-05-10T03:40:07;2.40;;;0.40;;
74660;SDS011;63191;39.566;2.654;2023-05-10T03:42:33;3.00;;;0.40;;
74660;SDS011;63191;39.566;2.654;2023-05-10T03:44:58;2.30;;;0.20;;
74660;SDS011;63191;39.566;2.654;2023-05-10T03:47:24;3.40;;;0.50;;
74660;SDS011;63191;39.566;2.654;2023-05-10T03:49:50;2.80;;;0.40;;
74660;SDS011;63191;39.566;2.654;2023-05-10T03:52:15;4.70;;;0.40;;
74660;SDS011;63191;39.566;2.654;2023-05-10T03:54:41;4.30;;;0.30;;
74660;SDS011;63191;39.566;2.654;2023-05-10T03:57:07;4.60;;;0.40;;
74660;SDS011;63191;39.566;2.654;2023-05-10T03:59:33;5.60;;;0.70;;
74660;SDS011;63191;39.566;2.654;2023-05-10T04:01:59;4.40;;;0.50;;
74660;SDS011;63191;39.566;2.654;2023-05-10T04:04:25;2.90;;;0.50;;
74660;SDS011;63191;39.566;2.654;2023-05-10T04:06:52;3.60;;;0.60;;
74660;SDS011;63191;39.566;2.654;2023-05-10T04:09:17;2.40;;;0.50;;
74660;SDS011;63191;39.566;2.654;2023-05-10T04:11:43;2.10;;;0.30;;
74660;SDS011;63191;39.566;2.654;2023-05-10T04:14:09;2.00;;;0.40;;
74660;SDS011;63191;39.566;2.654;2023-05-10T04:16:35;3.50;;;0.30;;
74660;SDS011;63191;39.566;2.654;2023-05-10T04:19:00;5.10;;;0.60;;
74660;SDS011;63191;39.566;2.654;2023-05-10T04:21:26;3.90;;;0.50;;
74660;SDS011;63191;39.566;2.654;2023-05-10T04:23:52;2.80;;;0.30;;
74660;SDS011;63191;39.566;2.654;2023-05-10T04:26:17;1.90;;;0.30;;
74660;SDS011;63191;39.566;2.654;2023-05-10T04:28:45;3.00;;;0.40;;
74660;SDS011;63191;39.566;2.654;2023-05-10T04:31:11;2.40;;;0.20;;
74660;SDS011;63191;39.566;2.654;2023-05-10T04:33:36;2.40;;;0.50;;
74660;SDS011;63191;39.566;2.654;2023-05-10T04:36:03;3.30;;;0.60;;
74660;SDS011;63191;39.566;2.654;2023-05-10T04:38:29;3.00;;;0.40;;
74660;SDS011;63191;39.566;2.654;2023-05-10T04:41:03;4.90;;;0.50;;
74660;SDS011;63191;39.566;2.654;2023-05-10T04:43:30;3.70;;;0.30;;
74660;SDS011;63191;39.566;2.654;2023-05-10T04:45:56;4.60;;;0.50;;
74660;SDS011;63191;39.566;2.654;2023-05-10T04:48:22;4.70;;;0.40;;
74660;SDS011;63191;39.566;2.654;2023-05-10T04:50:47;3.60;;;0.20;;
74660;SDS011;63191;39.566;2.654;2023-05-10T04:53:13;3.70;;;0.50;;
74660;SDS011;63191;39.566;2.654;2023-05-10T04:55:39;2.90;;;0.40;;
74660;SDS011;63191;39.566;2.654;2023-05-10T04:58:04;3.00;;;0.30;;
74660;SDS011;63191;39.566;2.654;2023-05-10T05:00:30;6.20;;;0.60;;
74660;SDS011;63191;39.566;2.654;2023-05-10T05:08:33;7.90;;;0.70;;
74660;SDS011;63191;39.566;2.654;2023-05-10T05:13:47;8.60;;;2.50;;
74660;SDS011;63191;39.566;2.654;2023-05-10T05:16:13;5.90;;;1.40;;
74660;SDS011;63191;39.566;2.654;2023-05-10T05:21:17;8.30;;;2.20;;
74660;SDS011;63191;39.566;2.654;2023-05-10T05:23:44;5.90;;;1.40;;
74660;SDS011;63191;39.566;2.654;2023-05-10T05:26:10;5.60;;;1.00;;
74660;SDS011;63191;39.566;2.654;2023-05-10T05:28:36;2.60;;;0.60;;
74660;SDS011;63191;39.566;2.654;2023-05-10T05:31:05;6.30;;;0.70;;
74660;SDS011;63191;39.566;2.654;2023-05-10T05:33:32;2.80;;;0.50;;
74660;SDS011;63191;39.566;2.654;2023-05-10T05:36:01;5.40;;;0.70;;
74660;SDS011;63191;39.566;2.654;2023-05-10T05:38:28;6.10;;;0.70;;
74660;SDS011;63191;39.566;2.654;2023-05-10T05:40:53;4.50;;;0.80;;
74660;SDS011;63191;39.566;2.654;2023-05-10T05:43:20;5.30;;;1.00;;
74660;SDS011;63191;39.566;2.654;2023-05-10T05:45:45;4.70;;;0.70;;
74660;SDS011;63191;39.566;2.654;2023-05-10T05:48:11;5.00;;;0.70;;
74660;SDS011;63191;39.566;2.654;2023-05-10T05:50:40;4.90;;;0.70;;
74660;SDS011;63191;39.566;2.654;2023-05-10T05:53:06;4.70;;;0.90;;
74660;SDS011;63191;39.566;2.654;2023-05-10T05:58:21;4.80;;;0.90;;
74660;SDS011;63191;39.566;2.654;2023-05-10T06:00:48;3.50;;;1.00;;
74660;SDS011;63191;39.566;2.654;2023-05-10T06:03:14;5.10;;;1.10;;
74660;SDS011;63191;39.566;2.654;2023-05-10T06:05:39;4.20;;;1.00;;
74660;SDS011;63191;39.566;2.654;2023-05-10T06:10:38;3.60;;;1.00;;
74660;SDS011;63191;39.566;2.654;2023-05-10T06:13:04;4.40;;;1.20;;
74660;SDS011;63191;39.566;2.654;2023-05-10T06:15:30;4.40;;;0.90;;
74660;SDS011;63191;39.566;2.654;2023-05-10T06:17:55;3.70;;;0.90;;
74660;SDS011;63191;39.566;2.654;2023-05-10T06:26:10;4.30;;;1.30;;
74660;SDS011;63191;39.566;2.654;2023-05-10T06:28:53;3.90;;;1.00;;
74660;SDS011;63191;39.566;2.654;2023-05-10T06:31:22;5.20;;;0.80;;
74660;SDS011;63191;39.566;2.654;2023-05-10T06:39:13;3.10;;;0.70;;
74660;SDS011;63191;39.566;2.654;2023-05-10T06:41:44;4.40;;;0.70;;
74660;SDS011;63191;39.566;2.654;2023-05-10T06:44:11;3.10;;;0.60;;
74660;SDS011;63191;39.566;2.654;2023-05-10T06:46:38;2.70;;;0.70;;
74660;SDS011;63191;39.566;2.654;2023-05-10T06:49:03;4.00;;;0.90;;
74660;SDS011;63191;39.566;2.654;2023-05-10T06:51:29;4.30;;;0.60;;
74660;SDS011;63191;39.566;2.654;2023-05-10T06:53:56;5.50;;;0.70;;
74660;SDS011;63191;39.566;2.654;2023-05-10T06:56:21;8.80;;;1.10;;
74660;SDS011;63191;39.566;2.654;2023-05-10T06:58:48;3.00;;;0.60;;
74660;SDS011;63191;39.566;2.654;2023-05-10T07:01:14;3.50;;;0.40;;
74660;SDS011;63191;39.566;2.654;2023-05-10T07:03:39;3.40;;;0.70;;
74660;SDS011;63191;39.566;2.654;2023-05-10T07:06:05;3.30;;;0.50;;
74660;SDS011;63191;39.566;2.654;2023-05-10T07:08:33;3.40;;;0.50;;
74660;SDS011;63191;39.566;2.654;2023-05-10T07:14:21;3.40;;;0.70;;
74660;SDS011;63191;39.566;2.654;2023-05-10T07:16:53;4.10;;;0.50;;
74660;SDS011;63191;39.566;2.654;2023-05-10T07:19:34;5.00;;;0.90;;
74660;SDS011;63191;39.566;2.654;2023-05-10T07:22:00;3.10;;;0.60;;
74660;SDS011;63191;39.566;2.654;2023-05-10T07:24:26;4.50;;;0.50;;
74660;SDS011;63191;39.566;2.654;2023-05-10T07:30:10;3.40;;;0.50;;
74660;SDS011;63191;39.566;2.654;2023-05-10T07:32:46;3.90;;;0.50;;
74660;SDS011;63191;39.566;2.654;2023-05-10T07:35:26;3.90;;;0.50;;
74660;SDS011;63191;39.566;2.654;2023-05-10T07:37:52;3.30;;;0.70;;
74660;SDS011;63191;39.566;2.654;2023-05-10T07:40:18;4.90;;;0.70;;
74660;SDS011;63191;39.566;2.654;2023-05-10T07:42:43;5.80;;;0.60;;
74660;SDS011;63191;39.566;2.654;2023-05-10T07:45:09;2.40;;;0.70;;
74660;SDS011;63191;39.566;2.654;2023-05-10T07:47:36;3.10;;;0.60;;
74660;SDS011;63191;39.566;2.654;2023-05-10T07:58:27;5.20;;;0.70;;
74660;SDS011;63191;39.566;2.654;2023-05-10T08:00:53;3.30;;;0.70;;
74660;SDS011;63191;39.566;2.654;2023-05-10T08:11:30;4.00;;;0.60;;
74660;SDS011;63191;39.566;2.654;2023-05-10T08:13:56;4.60;;;0.60;;
74660;SDS011;63191;39.566;2.654;2023-05-10T08:16:22;5.40;;;1.00;;
74660;SDS011;63191;39.566;2.654;2023-05-10T08:18:48;3.80;;;0.70;;
74660;SDS011;63191;39.566;2.654;2023-05-10T08:21:15;5.90;;;1.10;;
74660;SDS011;63191;39.566;2.654;2023-05-10T08:23:43;7.50;;;1.20;;
74660;SDS011;63191;39.566;2.654;2023-05-10T08:26:09;9.90;;;1.30;;
74660;SDS011;63191;39.566;2.654;2023-05-10T08:28:38;5.80;;;1.20;;
74660;SDS011;63191;39.566;2.654;2023-05-10T08:31:05;4.90;;;1.00;;
74660;SDS011;63191;39.566;2.654;2023-05-10T08:33:37;2.90;;;0.70;;
74660;SDS011;63191;39.566;2.654;2023-05-10T08:36:11;3.80;;;0.70;;
74660;SDS011;63191;39.566;2.654;2023-05-10T08:38:39;4.00;;;0.80;;
74660;SDS011;63191;39.566;2.654;2023-05-10T08:49:19;4.00;;;0.90;;
74660;SDS011;63191;39.566;2.654;2023-05-10T08:54:57;3.80;;;1.00;;
74660;SDS011;63191;39.566;2.654;2023-05-10T08:57:39;6.00;;;1.00;;
74660;SDS011;63191;39.566;2.654;2023-05-10T09:00:07;3.20;;;0.80;;
74660;SDS011;63191;39.566;2.654;2023-05-10T09:02:38;4.10;;;0.70;;
74660;SDS011;63191;39.566;2.654;2023-05-10T09:07:56;3.30;;;0.70;;
74660;SDS011;63191;39.566;2.654;2023-05-10T09:10:24;4.40;;;0.90;;
74660;SDS011;63191;39.566;2.654;2023-05-10T09:12:58;5.90;;;0.80;;
74660;SDS011;63191;39.566;2.654;2023-05-10T10:03:04;10.20;;;1.70;;
74660;SDS011;63191;39.566;2.654;2023-05-10T10:13:10;6.50;;;1.00;;
74660;SDS011;63191;39.566;2.654;2023-05-10T10:15:52;7.90;;;1.40;;
74660;SDS011;63191;39.566;2.654;2023-05-10T10:18:19;9.60;;;1.20;;
74660;SDS011;63191;39.566;2.654;2023-05-10T10:20:48;7.80;;;1.10;;
74660;SDS011;63191;39.566;2.654;2023-05-10T10:23:15;11.20;;;2.50;;
74660;SDS011;63191;39.566;2.654;2023-05-10T10:25:41;10.10;;;2.40;;
74660;SDS011;63191;39.566;2.654;2023-05-10T10:28:16;7.20;;;1.00;;
74660;SDS011;63191;39.566;2.654;2023-05-10T10:30:48;9.70;;;1.60;;
74660;SDS011;63191;39.566;2.654;2023-05-10T10:36:06;9.10;;;1.40;;
74660;SDS011;63191;39.566;2.654;2023-05-10T10:41:33;13.80;;;3.50;;
74660;SDS011;63191;39.566;2.654;2023-05-10T10:50:02;10.50;;;1.50;;
74660;SDS011;63191;39.566;2.654;2023-05-10T10:52:37;7.90;;;1.40;;
74660;SDS011;63191;39.566;2.654;2023-05-10T10:55:14;13.00;;;1.30;;
74660;SDS011;63191;39.566;2.654;2023-05-10T10:57:49;10.10;;;1.10;;
74660;SDS011;63191;39.566;2.654;2023-05-10T11:03:11;9.00;;;1.30;;
74660;SDS011;63191;39.566;2.654;2023-05-10T11:05:48;10.60;;;1.60;;
74660;SDS011;63191;39.566;2.654;2023-05-10T11:08:18;5.50;;;1.10;;
74660;SDS011;63191;39.566;2.654;2023-05-10T11:10:52;7.60;;;1.00;;
74660;SDS011;63191;39.566;2.654;2023-05-10T11:13:33;9.10;;;1.40;;
74660;SDS011;63191;39.566;2.654;2023-05-10T11:19:07;9.90;;;1.50;;
74660;SDS011;63191;39.566;2.654;2023-05-10T11:24:01;8.10;;;1.40;;
74660;SDS011;63191;39.566;2.654;2023-05-10T11:26:34;11.10;;;1.40;;
74660;SDS011;63191;39.566;2.654;2023-05-10T11:29:00;7.70;;;1.00;;
74660;SDS011;63191;39.566;2.654;2023-05-10T11:31:28;8.30;;;1.00;;
74660;SDS011;63191;39.566;2.654;2023-05-10T11:33:56;7.90;;;1.20;;
74660;SDS011;63191;39.566;2.654;2023-05-10T11:36:27;9.90;;;1.40;;
74660;SDS011;63191;39.566;2.654;2023-05-10T11:38:55;7.60;;;1.20;;
74660;SDS011;63191;39.566;2.654;2023-05-10T11:41:22;9.00;;;1.20;;
74660;SDS011;63191;39.566;2.654;2023-05-10T11:43:51;7.50;;;1.10;;
74660;SDS011;63191;39.566;2.654;2023-05-10T11:46:27;10.00;;;1.10;;
74660;SDS011;63191;39.566;2.654;2023-05-10T11:48:58;8.70;;;1.10;;
74660;SDS011;63191;39.566;2.654;2023-05-10T12:10:42;11.50;;;2.80;;
74660;SDS011;63191;39.566;2.654;2023-05-10T12:18:31;9.20;;;1.90;;
74660;SDS011;63191;39.566;2.654;2023-05-10T12:21:19;11.80;;;1.50;;
74660;SDS011;63191;39.566;2.654;2023-05-10T12:26:12;8.30;;;1.80;;
74660;SDS011;63191;39.566;2.654;2023-05-10T12:28:38;8.80;;;1.40;;
74660;SDS011;63191;39.566;2.654;2023-05-10T12:31:07;5.90;;;1.10;;
74660;SDS011;63191;39.566;2.654;2023-05-10T12:33:38;10.20;;;1.60;;
74660;SDS011;63191;39.566;2.654;2023-05-10T12:36:13;10.70;;;1.90;;
74660;SDS011;63191;39.566;2.654;2023-05-10T12:38:41;8.30;;;1.50;;
74660;SDS011;63191;39.566;2.654;2023-05-10T12:41:15;10.40;;;1.60;;
74660;SDS011;63191;39.566;2.654;2023-05-10T12:43:42;10.10;;;1.60;;
74660;SDS011;63191;39.566;2.654;2023-05-10T12:46:11;10.90;;;1.90;;
74660;SDS011;63191;39.566;2.654;2023-05-10T12:48:40;9.20;;;1.80;;
74660;SDS011;63191;39.566;2.654;2023-05-10T12:51:07;8.80;;;1.50;;
74660;SDS011;63191;39.566;2.654;2023-05-10T12:53:35;8.60;;;1.60;;
74660;SDS011;63191;39.566;2.654;2023-05-10T12:56:01;9.10;;;1.60;;
74660;SDS011;63191;39.566;2.654;2023-05-10T12:58:27;11.00;;;2.10;;
74660;SDS011;63191;39.566;2.654;2023-05-10T13:00:53;11.10;;;1.90;;
74660;SDS011;63191;39.566;2.654;2023-05-10T13:03:22;9.10;;;1.30;;
74660;SDS011;63191;39.566;2.654;2023-05-10T13:05:48;10.20;;;1.60;;
74660;SDS011;63191;39.566;2.654;2023-05-10T13:08:14;8.10;;;1.50;;
74660;SDS011;63191;39.566;2.654;2023-05-10T13:10:57;11.10;;;1.40;;
74660;SDS011;63191;39.566;2.654;2023-05-10T13:13:29;9.60;;;1.90;;
74660;SDS011;63191;39.566;2.654;2023-05-10T13:15:54;9.20;;;1.50;;
74660;SDS011;63191;39.566;2.654;2023-05-10T13:18:20;9.60;;;1.50;;
74660;SDS011;63191;39.566;2.654;2023-05-10T13:20:46;8.00;;;2.20;;
74660;SDS011;63191;39.566;2.654;2023-05-10T13:23:11;9.90;;;1.80;;
74660;SDS011;63191;39.566;2.654;2023-05-10T13:25:37;8.10;;;1.50;;
74660;SDS011;63191;39.566;2.654;2023-05-10T13:28:03;9.00;;;1.70;;
74660;SDS011;63191;39.566;2.654;2023-05-10T13:30:29;8.90;;;1.70;;
74660;SDS011;63191;39.566;2.654;2023-05-10T13:32:55;8.70;;;1.80;;
74660;SDS011;63191;39.566;2.654;2023-05-10T13:35:20;8.50;;;1.70;;
74660;SDS011;63191;39.566;2.654;2023-05-10T13:37:46;10.20;;;1.80;;
74660;SDS011;63191;39.566;2.654;2023-05-10T13:40:12;8.30;;;1.80;;
74660;SDS011;63191;39.566;2.654;2023-05-10T13:42:38;7.50;;;1.80;;
74660;SDS011;63191;39.566;2.654;2023-05-10T13:45:14;10.20;;;2.20;;
74660;SDS011;63191;39.566;2.654;2023-05-10T13:47:42;10.00;;;2.20;;
74660;SDS011;63191;39.566;2.654;2023-05-10T13:52:41;10.60;;;2.10;;
74660;SDS011;63191;39.566;2.654;2023-05-10T13:55:10;8.90;;;2.30;;
74660;SDS011;63191;39.566;2.654;2023-05-10T13:57:37;9.20;;;2.50;;
74660;SDS011;63191;39.566;2.654;2023-05-10T14:00:09;8.50;;;2.20;;
74660;SDS011;63191;39.566;2.654;2023-05-10T14:02:35;11.30;;;2.20;;
74660;SDS011;63191;39.566;2.654;2023-05-10T14:05:02;11.70;;;2.50;;
74660;SDS011;63191;39.566;2.654;2023-05-10T14:07:28;13.20;;;2.40;;
74660;SDS011;63191;39.566;2.654;2023-05-10T14:09:58;20.90;;;2.40;;
74660;SDS011;63191;39.566;2.654;2023-05-10T14:12:24;9.30;;;2.20;;
74660;SDS011;63191;39.566;2.654;2023-05-10T14:14:50;16.30;;;4.50;;
74660;SDS011;63191;39.566;2.654;2023-05-10T14:17:15;12.40;;;3.30;;
74660;SDS011;63191;39.566;2.654;2023-05-10T14:19:41;11.30;;;2.30;;
74660;SDS011;63191;39.566;2.654;2023-05-10T14:22:07;7.90;;;1.70;;
74660;SDS011;63191;39.566;2.654;2023-05-10T14:24:36;9.10;;;1.90;;
74660;SDS011;63191;39.566;2.654;2023-05-10T14:27:01;10.60;;;1.90;;
74660;SDS011;63191;39.566;2.654;2023-05-10T14:29:28;10.90;;;1.70;;
74660;SDS011;63191;39.566;2.654;2023-05-10T14:31:54;8.00;;;1.30;;
74660;SDS011;63191;39.566;2.654;2023-05-10T14:34:23;11.70;;;2.50;;
74660;SDS011;63191;39.566;2.654;2023-05-10T14:36:48;8.60;;;1.80;;
74660;SDS011;63191;39.566;2.654;2023-05-10T14:39:15;9.20;;;1.60;;
74660;SDS011;63191;39.566;2.654;2023-05-10T14:41:41;9.90;;;1.50;;
74660;SDS011;63191;39.566;2.654;2023-05-10T14:44:08;7.50;;;1.20;;
74660;SDS011;63191;39.566;2.654;2023-05-10T14:46:35;5.70;;;1.20;;
74660;SDS011;63191;39.566;2.654;2023-05-10T14:49:00;7.00;;;1.30;;
74660;SDS011;63191;39.566;2.654;2023-05-10T14:51:29;7.80;;;1.30;;
74660;SDS011;63191;39.566;2.654;2023-05-10T14:53:55;10.60;;;1.40;;
74660;SDS011;63191;39.566;2.654;2023-05-10T14:56:22;11.40;;;1.70;;
74660;SDS011;63191;39.566;2.654;2023-05-10T14:58:57;9.60;;;1.30;;
74660;SDS011;63191;39.566;2.654;2023-05-10T15:01:22;14.00;;;2.00;;
74660;SDS011;63191;39.566;2.654;2023-05-10T15:03:48;7.10;;;1.30;;
74660;SDS011;63191;39.566;2.654;2023-05-10T15:06:14;9.10;;;1.30;;
74660;SDS011;63191;39.566;2.654;2023-05-10T15:08:43;11.70;;;1.40;;
74660;SDS011;63191;39.566;2.654;2023-05-10T15:11:09;13.10;;;1.70;;
74660;SDS011;63191;39.566;2.654;2023-05-10T15:13:35;9.70;;;1.30;;
74660;SDS011;63191;39.566;2.654;2023-05-10T15:21:36;10.00;;;1.40;;
74660;SDS011;63191;39.566;2.654;2023-05-10T15:24:08;9.70;;;1.60;;
74660;SDS011;63191;39.566;2.654;2023-05-10T15:26:38;9.30;;;1.50;;
74660;SDS011;63191;39.566;2.654;2023-05-10T15:29:07;9.50;;;1.30;;
74660;SDS011;63191;39.566;2.654;2023-05-10T15:31:35;9.10;;;1.10;;
74660;SDS011;63191;39.566;2.654;2023-05-10T15:34:01;8.30;;;1.20;;
74660;SDS011;63191;39.566;2.654;2023-05-10T15:50:31;10.90;;;1.30;;
74660;SDS011;63191;39.566;2.654;2023-05-10T15:52:57;14.90;;;2.00;;
74660;SDS011;63191;39.566;2.654;2023-05-10T15:55:27;11.50;;;1.50;;
74660;SDS011;63191;39.566;2.654;2023-05-10T15:57:53;9.80;;;1.30;;
74660;SDS011;63191;39.566;2.654;2023-05-10T16:00:18;10.20;;;1.40;;
74660;SDS011;63191;39.566;2.654;2023-05-10T16:02:59;9.40;;;1.70;;
74660;SDS011;63191;39.566;2.654;2023-05-10T16:05:37;10.80;;;1.70;;
74660;SDS011;63191;39.566;2.654;2023-05-10T16:08:03;13.00;;;1.40;;
74660;SDS011;63191;39.566;2.654;2023-05-10T16:10:34;9.90;;;1.50;;
74660;SDS011;63191;39.566;2.654;2023-05-10T16:13:01;8.40;;;1.00;;
74660;SDS011;63191;39.566;2.654;2023-05-10T16:15:27;12.70;;;2.20;;
74660;SDS011;63191;39.566;2.654;2023-05-10T16:17:54;9.10;;;1.60;;
74660;SDS011;63191;39.566;2.654;2023-05-10T16:20:20;10.00;;;1.30;;
74660;SDS011;63191;39.566;2.654;2023-05-10T16:23:05;6.50;;;1.10;;
74660;SDS011;63191;39.566;2.654;2023-05-10T16:26:01;10.30;;;1.10;;
74660;SDS011;63191;39.566;2.654;2023-05-10T16:28:28;6.40;;;1.10;;
74660;SDS011;63191;39.566;2.654;2023-05-10T16:31:18;11.30;;;1.50;;
74660;SDS011;63191;39.566;2.654;2023-05-10T16:33:49;9.60;;;1.30;;
74660;SDS011;63191;39.566;2.654;2023-05-10T16:36:21;8.60;;;1.30;;
74660;SDS011;63191;39.566;2.654;2023-05-10T16:38:50;8.30;;;1.50;;
74660;SDS011;63191;39.566;2.654;2023-05-10T16:41:18;12.30;;;1.80;;
74660;SDS011;63191;39.566;2.654;2023-05-10T16:43:45;13.70;;;1.90;;
74660;SDS011;63191;39.566;2.654;2023-05-10T16:46:11;12.00;;;1.70;;
74660;SDS011;63191;39.566;2.654;2023-05-10T16:48:41;10.10;;;1.30;;
74660;SDS011;63191;39.566;2.654;2023-05-10T16:51:07;9.60;;;1.40;;
74660;SDS011;63191;39.566;2.654;2023-05-10T16:59:06;8.20;;;1.40;;
74660;SDS011;63191;39.566;2.654;2023-05-10T17:01:49;11.00;;;1.50;;
74660;SDS011;63191;39.566;2.654;2023-05-10T17:04:15;12.00;;;1.30;;
74660;SDS011;63191;39.566;2.654;2023-05-10T17:06:42;13.00;;;1.50;;
74660;SDS011;63191;39.566;2.654;2023-05-10T17:09:15;11.10;;;1.50;;
74660;SDS011;63191;39.566;2.654;2023-05-10T17:11:47;11.80;;;1.90;;
74660;SDS011;63191;39.566;2.654;2023-05-10T17:14:15;11.90;;;1.60;;
74660;SDS011;63191;39.566;2.654;2023-05-10T17:19:06;10.00;;;1.70;;
74660;SDS011;63191;39.566;2.654;2023-05-10T17:21:52;13.40;;;1.60;;
74660;SDS011;63191;39.566;2.654;2023-05-10T17:29:55;12.40;;;1.60;;
74660;SDS011;63191;39.566;2.654;2023-05-10T17:32:21;12.30;;;1.30;;
74660;SDS011;63191;39.566;2.654;2023-05-10T17:34:47;13.30;;;1.60;;
74660;SDS011;63191;39.566;2.654;2023-05-10T17:37:17;13.60;;;1.60;;
74660;SDS011;63191;39.566;2.654;2023-05-10T17:39:43;10.70;;;1.70;;
74660;SDS011;63191;39.566;2.654;2023-05-10T17:42:09;13.10;;;1.70;;
74660;SDS011;63191;39.566;2.654;2023-05-10T17:47:43;11.20;;;1.30;;
74660;SDS011;63191;39.566;2.654;2023-05-10T17:50:09;15.00;;;1.50;;
74660;SDS011;63191;39.566;2.654;2023-05-10T17:52:35;9.30;;;1.20;;
74660;SDS011;63191;39.566;2.654;2023-05-10T17:55:06;14.50;;;1.70;;
74660;SDS011;63191;39.566;2.654;2023-05-10T17:57:32;11.10;;;1.90;;
74660;SDS011;63191;39.566;2.654;2023-05-10T18:00:06;13.40;;;2.10;;
74660;SDS011;63191;39.566;2.654;2023-05-10T18:02:36;10.90;;;1.30;;
74660;SDS011;63191;39.566;2.654;2023-05-10T18:05:03;10.10;;;1.50;;
74660;SDS011;63191;39.566;2.654;2023-05-10T18:08:13;13.00;;;1.90;;
74660;SDS011;63191;39.566;2.654;2023-05-10T18:10:21;15.30;;;1.70;;
74660;SDS011;63191;39.566;2.654;2023-05-10T18:12:48;10.90;;;1.80;;
74660;SDS011;63191;39.566;2.654;2023-05-10T18:15:15;9.50;;;1.10;;
74660;SDS011;63191;39.566;2.654;2023-05-10T18:18:05;13.10;;;1.80;;
74660;SDS011;63191;39.566;2.654;2023-05-10T18:20:31;12.60;;;1.70;;
74660;SDS011;63191;39.566;2.654;2023-05-10T18:22:57;12.90;;;2.10;;
74660;SDS011;63191;39.566;2.654;2023-05-10T18:25:24;15.90;;;2.80;;
74660;SDS011;63191;39.566;2.654;2023-05-10T18:27:50;10.10;;;2.10;;
74660;SDS011;63191;39.566;2.654;2023-05-10T18:30:22;12.50;;;1.80;;
74660;SDS011;63191;39.566;2.654;2023-05-10T18:32:50;11.50;;;1.30;;
74660;SDS011;63191;39.566;2.654;2023-05-10T18:35:25;9.30;;;1.50;;
74660;SDS011;63191;39.566;2.654;2023-05-10T18:37:54;13.10;;;1.50;;